Aviation Digital Data Service (ADDS)

Output produced by METARs form (1323 UTC 21 August 2019)
found at http://www.aviationweather.gov/metar/data/
 
METAR text: LEZL 211300Z 28007KT 220V340 9999 FEW045 33/13 Q1015 NOSIG
Conditions at: LEZL (SEVILLA (CIV/MIL, ES) observed 1300 UTC 21 August 2019
Temperature: 33.0°C (91°F)
Dewpoint: 13.0°C (55°F) [RH = 30%]
Pressure (altimeter): 29.97 inches Hg (1015.0 mb)
Winds: from the W (280 degrees) at 8 MPH (7 knots; 3.6 m/s)
Visibility: 6 or more miles (10+ km)
Ceiling: at least 12,000 feet AGL
Clouds: few clouds at 4500 feet AGL
Weather: no significant weather observed at this time

METAR text: LEZL 211230Z 29006KT 240V020 CAVOK 32/13 Q1015 NOSIG
Conditions at: LEZL (SEVILLA (CIV/MIL, ES) observed 1230 UTC 21 August 2019
Temperature: 32.0°C (90°F)
Dewpoint: 13.0°C (55°F) [RH = 32%]
Pressure (altimeter): 29.97 inches Hg (1015.0 mb)
Winds: from the WNW (290 degrees) at 7 MPH (6 knots; 3.1 m/s)
Visibility: 6 or more miles (10+ km)
Ceiling: ceiling and visibility are OK
Clouds: unknown
Weather: no significant weather observed at this time

METAR text: LEZL 211200Z VRB04KT CAVOK 32/14 Q1015 NOSIG
Conditions at: LEZL (SEVILLA (CIV/MIL, ES) observed 1200 UTC 21 August 2019
Temperature: 32.0°C (90°F)
Dewpoint: 14.0°C (57°F) [RH = 34%]
Pressure (altimeter): 29.97 inches Hg (1015.0 mb)
Winds: variable direction winds at 5 MPH (4 knots; 2.1 m/s)
Visibility: 6 or more miles (10+ km)
Ceiling: ceiling and visibility are OK
Clouds: unknown
Weather: no significant weather observed at this time

METAR text: LEZL 211130Z 08003KT CAVOK 31/15 Q1016 NOSIG
Conditions at: LEZL (SEVILLA (CIV/MIL, ES) observed 1130 UTC 21 August 2019
Temperature: 31.0°C (88°F)
Dewpoint: 15.0°C (59°F) [RH = 38%]
Pressure (altimeter): 30.00 inches Hg (1016.0 mb)
Winds: from the E (80 degrees) at 3 MPH (3 knots; 1.5 m/s)
Visibility: 6 or more miles (10+ km)
Ceiling: ceiling and visibility are OK
Clouds: unknown
Weather: no significant weather observed at this time

METAR text: LEZL 211100Z 10003KT CAVOK 31/14 Q1016 NOSIG
Conditions at: LEZL (SEVILLA (CIV/MIL, ES) observed 1100 UTC 21 August 2019
Temperature: 31.0°C (88°F)
Dewpoint: 14.0°C (57°F) [RH = 36%]
Pressure (altimeter): 30.00 inches Hg (1016.0 mb)
Winds: from the E (100 degrees) at 3 MPH (3 knots; 1.5 m/s)
Visibility: 6 or more miles (10+ km)
Ceiling: ceiling and visibility are OK
Clouds: unknown
Weather: no significant weather observed at this time

METAR text: LEZL 211030Z 06003KT 340V120 CAVOK 30/13 Q1016 NOSIG
Conditions at: LEZL (SEVILLA (CIV/MIL, ES) observed 1030 UTC 21 August 2019
Temperature: 30.0°C (86°F)
Dewpoint: 13.0°C (55°F) [RH = 35%]
Pressure (altimeter): 30.00 inches Hg (1016.0 mb)
Winds: from the ENE (60 degrees) at 3 MPH (3 knots; 1.5 m/s)
Visibility: 6 or more miles (10+ km)
Ceiling: ceiling and visibility are OK
Clouds: unknown
Weather: no significant weather observed at this time

METAR text: LEZL 211000Z 34005KT 250V050 CAVOK 29/09 Q1017 NOSIG
Conditions at: LEZL (SEVILLA (CIV/MIL, ES) observed 1000 UTC 21 August 2019
Temperature: 29.0°C (84°F)
Dewpoint: 9.0°C (48°F) [RH = 29%]
Pressure (altimeter): 30.03 inches Hg (1017.0 mb)
Winds: from the NNW (340 degrees) at 6 MPH (5 knots; 2.6 m/s)
Visibility: 6 or more miles (10+ km)
Ceiling: ceiling and visibility are OK
Clouds: unknown
Weather: no significant weather observed at this time

METAR text: LEZL 210930Z 35005KT 320V080 CAVOK 28/09 Q1017 NOSIG
Conditions at: LEZL (SEVILLA (CIV/MIL, ES) observed 0930 UTC 21 August 2019
Temperature: 28.0°C (82°F)
Dewpoint: 9.0°C (48°F) [RH = 30%]
Pressure (altimeter): 30.03 inches Hg (1017.0 mb)
Winds: from the N (350 degrees) at 6 MPH (5 knots; 2.6 m/s)
Visibility: 6 or more miles (10+ km)
Ceiling: ceiling and visibility are OK
Clouds: unknown
Weather: no significant weather observed at this time

METAR text: LEZL 210900Z 01004KT 320V060 CAVOK 27/09 Q1017 NOSIG
Conditions at: LEZL (SEVILLA (CIV/MIL, ES) observed 0900 UTC 21 August 2019
Temperature: 27.0°C (81°F)
Dewpoint: 9.0°C (48°F) [RH = 32%]
Pressure (altimeter): 30.03 inches Hg (1017.0 mb)
Winds: from the N (10 degrees) at 5 MPH (4 knots; 2.1 m/s)
Visibility: 6 or more miles (10+ km)
Ceiling: ceiling and visibility are OK
Clouds: unknown
Weather: no significant weather observed at this time

METAR text: LEZL 210830Z 01003KT 320V050 CAVOK 25/09 Q1017 NOSIG
Conditions at: LEZL (SEVILLA (CIV/MIL, ES) observed 0830 UTC 21 August 2019
Temperature: 25.0°C (77°F)
Dewpoint: 9.0°C (48°F) [RH = 36%]
Pressure (altimeter): 30.03 inches Hg (1017.0 mb)
Winds: from the N (10 degrees) at 3 MPH (3 knots; 1.5 m/s)
Visibility: 6 or more miles (10+ km)
Ceiling: ceiling and visibility are OK
Clouds: unknown
Weather: no significant weather observed at this time

METAR text: LEZL 210800Z 03003KT 350V090 CAVOK 23/11 Q1017 NOSIG
Conditions at: LEZL (SEVILLA (CIV/MIL, ES) observed 0800 UTC 21 August 2019
Temperature: 23.0°C (73°F)
Dewpoint: 11.0°C (52°F) [RH = 47%]
Pressure (altimeter): 30.03 inches Hg (1017.0 mb)
Winds: from the NNE (30 degrees) at 3 MPH (3 knots; 1.5 m/s)
Visibility: 6 or more miles (10+ km)
Ceiling: ceiling and visibility are OK
Clouds: unknown
Weather: no significant weather observed at this time

METAR text: LEZL 210730Z 01003KT 300V060 CAVOK 22/11 Q1017 NOSIG
Conditions at: LEZL (SEVILLA (CIV/MIL, ES) observed 0730 UTC 21 August 2019
Temperature: 22.0°C (72°F)
Dewpoint: 11.0°C (52°F) [RH = 50%]
Pressure (altimeter): 30.03 inches Hg (1017.0 mb)
Winds: from the N (10 degrees) at 3 MPH (3 knots; 1.5 m/s)
Visibility: 6 or more miles (10+ km)
Ceiling: ceiling and visibility are OK
Clouds: unknown
Weather: no significant weather observed at this time

METAR text: LEZL 210700Z 35003KT 320V020 CAVOK 21/11 Q1016 NOSIG
Conditions at: LEZL (SEVILLA (CIV/MIL, ES) observed 0700 UTC 21 August 2019
Temperature: 21.0°C (70°F)
Dewpoint: 11.0°C (52°F) [RH = 53%]
Pressure (altimeter): 30.00 inches Hg (1016.0 mb)
Winds: from the N (350 degrees) at 3 MPH (3 knots; 1.5 m/s)
Visibility: 6 or more miles (10+ km)
Ceiling: ceiling and visibility are OK
Clouds: unknown
Weather: no significant weather observed at this time

METAR text: LEZL 210630Z VRB02KT CAVOK 20/11 Q1016 NOSIG
Conditions at: LEZL (SEVILLA (CIV/MIL, ES) observed 0630 UTC 21 August 2019
Temperature: 20.0°C (68°F)
Dewpoint: 11.0°C (52°F) [RH = 56%]
Pressure (altimeter): 30.00 inches Hg (1016.0 mb)
Winds: variable direction winds at 2 MPH (2 knots; 1.0 m/s)
Visibility: 6 or more miles (10+ km)
Ceiling: ceiling and visibility are OK
Clouds: unknown
Weather: no significant weather observed at this time

METAR text: LEZL 210600Z 03003KT CAVOK 20/10 Q1016 NOSIG
Conditions at: LEZL (SEVILLA (CIV/MIL, ES) observed 0600 UTC 21 August 2019
Temperature: 20.0°C (68°F)
Dewpoint: 10.0°C (50°F) [RH = 53%]
Pressure (altimeter): 30.00 inches Hg (1016.0 mb)
Winds: from the NNE (30 degrees) at 3 MPH (3 knots; 1.5 m/s)
Visibility: 6 or more miles (10+ km)
Ceiling: ceiling and visibility are OK
Clouds: unknown
Weather: no significant weather observed at this time

METAR text: LEZL 210530Z 06004KT 020V100 CAVOK 21/11 Q1016 NOSIG
Conditions at: LEZL (SEVILLA (CIV/MIL, ES) observed 0530 UTC 21 August 2019
Temperature: 21.0°C (70°F)
Dewpoint: 11.0°C (52°F) [RH = 53%]
Pressure (altimeter): 30.00 inches Hg (1016.0 mb)
Winds: from the ENE (60 degrees) at 5 MPH (4 knots; 2.1 m/s)
Visibility: 6 or more miles (10+ km)
Ceiling: ceiling and visibility are OK
Clouds: unknown
Weather: no significant weather observed at this time

METAR text: LEZL 210500Z 04003KT 360V070 CAVOK 20/11 Q1016 NOSIG
Conditions at: LEZL (SEVILLA (CIV/MIL, ES) observed 0500 UTC 21 August 2019
Temperature: 20.0°C (68°F)
Dewpoint: 11.0°C (52°F) [RH = 56%]
Pressure (altimeter): 30.00 inches Hg (1016.0 mb)
Winds: from the NE (40 degrees) at 3 MPH (3 knots; 1.5 m/s)
Visibility: 6 or more miles (10+ km)
Ceiling: ceiling and visibility are OK
Clouds: unknown
Weather: no significant weather observed at this time

METAR text: LEZL 210430Z 05003KT CAVOK 20/12 Q1016 NOSIG
Conditions at: LEZL (SEVILLA (CIV/MIL, ES) observed 0430 UTC 21 August 2019
Temperature: 20.0°C (68°F)
Dewpoint: 12.0°C (54°F) [RH = 60%]
Pressure (altimeter): 30.00 inches Hg (1016.0 mb)
Winds: from the NE (50 degrees) at 3 MPH (3 knots; 1.5 m/s)
Visibility: 6 or more miles (10+ km)
Ceiling: ceiling and visibility are OK
Clouds: unknown
Weather: no significant weather observed at this time

METAR text: LEZL 210400Z 05004KT CAVOK 20/12 Q1016 NOSIG
Conditions at: LEZL (SEVILLA (CIV/MIL, ES) observed 0400 UTC 21 August 2019
Temperature: 20.0°C (68°F)
Dewpoint: 12.0°C (54°F) [RH = 60%]
Pressure (altimeter): 30.00 inches Hg (1016.0 mb)
Winds: from the NE (50 degrees) at 5 MPH (4 knots; 2.1 m/s)
Visibility: 6 or more miles (10+ km)
Ceiling: ceiling and visibility are OK
Clouds: unknown
Weather: no significant weather observed at this time

METAR text: LEZL 210330Z 06003KT CAVOK 20/12 Q1016 NOSIG
Conditions at: LEZL (SEVILLA (CIV/MIL, ES) observed 0330 UTC 21 August 2019
Temperature: 20.0°C (68°F)
Dewpoint: 12.0°C (54°F) [RH = 60%]
Pressure (altimeter): 30.00 inches Hg (1016.0 mb)
Winds: from the ENE (60 degrees) at 3 MPH (3 knots; 1.5 m/s)
Visibility: 6 or more miles (10+ km)
Ceiling: ceiling and visibility are OK
Clouds: unknown
Weather: no significant weather observed at this time

METAR text: LEZL 210300Z 04003KT CAVOK 20/12 Q1015 NOSIG
Conditions at: LEZL (SEVILLA (CIV/MIL, ES) observed 0300 UTC 21 August 2019
Temperature: 20.0°C (68°F)
Dewpoint: 12.0°C (54°F) [RH = 60%]
Pressure (altimeter): 29.97 inches Hg (1015.0 mb)
Winds: from the NE (40 degrees) at 3 MPH (3 knots; 1.5 m/s)
Visibility: 6 or more miles (10+ km)
Ceiling: ceiling and visibility are OK
Clouds: unknown
Weather: no significant weather observed at this time

METAR text: LEZL 210230Z 04003KT CAVOK 20/12 Q1015 NOSIG
Conditions at: LEZL (SEVILLA (CIV/MIL, ES) observed 0230 UTC 21 August 2019
Temperature: 20.0°C (68°F)
Dewpoint: 12.0°C (54°F) [RH = 60%]
Pressure (altimeter): 29.97 inches Hg (1015.0 mb)
Winds: from the NE (40 degrees) at 3 MPH (3 knots; 1.5 m/s)
Visibility: 6 or more miles (10+ km)
Ceiling: ceiling and visibility are OK
Clouds: unknown
Weather: no significant weather observed at this time

METAR text: LEZL 210200Z 30001KT CAVOK 21/12 Q1015 NOSIG
Conditions at: LEZL (SEVILLA (CIV/MIL, ES) observed 0200 UTC 21 August 2019
Temperature: 21.0°C (70°F)
Dewpoint: 12.0°C (54°F) [RH = 56%]
Pressure (altimeter): 29.97 inches Hg (1015.0 mb)
Winds: from the WNW (300 degrees) at 1 MPH (1 knots; 0.5 m/s)
Visibility: 6 or more miles (10+ km)
Ceiling: ceiling and visibility are OK
Clouds: unknown
Weather: no significant weather observed at this time

METAR text: LEZL 210130Z VRB02KT CAVOK 21/13 Q1016 NOSIG
Conditions at: LEZL (SEVILLA (CIV/MIL, ES) observed 0130 UTC 21 August 2019
Temperature: 21.0°C (70°F)
Dewpoint: 13.0°C (55°F) [RH = 60%]
Pressure (altimeter): 30.00 inches Hg (1016.0 mb)
Winds: variable direction winds at 2 MPH (2 knots; 1.0 m/s)
Visibility: 6 or more miles (10+ km)
Ceiling: ceiling and visibility are OK
Clouds: unknown
Weather: no significant weather observed at this time

METAR text: LEZL 210100Z AUTO 16007KT 9999 NCD 21/13 Q1016
Conditions at: LEZL (SEVILLA (CIV/MIL, ES) observed 0100 UTC 21 August 2019
Temperature: 21.0°C (70°F)
Dewpoint: 13.0°C (55°F) [RH = 60%]
Pressure (altimeter): 30.00 inches Hg (1016.0 mb)
Winds: from the SSE (160 degrees) at 8 MPH (7 knots; 3.6 m/s)
Visibility: 6 or more miles (10+ km)
Ceiling: at least 12,000 feet AGL
Clouds: sky clear below 12,000 feet AGL
Weather: no significant weather observed at this time

METAR text: LEZL 210030Z AUTO 18011KT 9999 NCD 21/13 Q1016
Conditions at: LEZL (SEVILLA (CIV/MIL, ES) observed 0030 UTC 21 August 2019
Temperature: 21.0°C (70°F)
Dewpoint: 13.0°C (55°F) [RH = 60%]
Pressure (altimeter): 30.00 inches Hg (1016.0 mb)
Winds: from the S (180 degrees) at 13 MPH (11 knots; 5.7 m/s)
Visibility: 6 or more miles (10+ km)
Ceiling: at least 12,000 feet AGL
Clouds: sky clear below 12,000 feet AGL
Weather: no significant weather observed at this time

METAR text: LEZL 210000Z AUTO 20009KT 170V230 9999 NCD 22/13 Q1015
Conditions at: LEZL (SEVILLA (CIV/MIL, ES) observed 0000 UTC 21 August 2019
Temperature: 22.0°C (72°F)
Dewpoint: 13.0°C (55°F) [RH = 57%]
Pressure (altimeter): 29.97 inches Hg (1015.0 mb)
Winds: from the SSW (200 degrees) at 10 MPH (9 knots; 4.6 m/s)
Visibility: 6 or more miles (10+ km)
Ceiling: at least 12,000 feet AGL
Clouds: sky clear below 12,000 feet AGL
Weather: no significant weather observed at this time

METAR text: LEZL 202330Z AUTO 19008KT 9999 NCD 22/12 Q1015
Conditions at: LEZL (SEVILLA (CIV/MIL, ES) observed 2330 UTC 20 August 2019
Temperature: 22.0°C (72°F)
Dewpoint: 12.0°C (54°F) [RH = 53%]
Pressure (altimeter): 29.97 inches Hg (1015.0 mb)
Winds: from the S (190 degrees) at 9 MPH (8 knots; 4.1 m/s)
Visibility: 6 or more miles (10+ km)
Ceiling: at least 12,000 feet AGL
Clouds: sky clear below 12,000 feet AGL
Weather: no significant weather observed at this time

METAR text: LEZL 202300Z 18006KT CAVOK 22/13 Q1015 NOSIG
Conditions at: LEZL (SEVILLA (CIV/MIL, ES) observed 2300 UTC 20 August 2019
Temperature: 22.0°C (72°F)
Dewpoint: 13.0°C (55°F) [RH = 57%]
Pressure (altimeter): 29.97 inches Hg (1015.0 mb)
Winds: from the S (180 degrees) at 7 MPH (6 knots; 3.1 m/s)
Visibility: 6 or more miles (10+ km)
Ceiling: ceiling and visibility are OK
Clouds: unknown
Weather: no significant weather observed at this time

METAR text: LEZL 202230Z 19007KT 160V220 CAVOK 23/12 Q1015 NOSIG
Conditions at: LEZL (SEVILLA (CIV/MIL, ES) observed 2230 UTC 20 August 2019
Temperature: 23.0°C (73°F)
Dewpoint: 12.0°C (54°F) [RH = 50%]
Pressure (altimeter): 29.97 inches Hg (1015.0 mb)
Winds: from the S (190 degrees) at 8 MPH (7 knots; 3.6 m/s)
Visibility: 6 or more miles (10+ km)
Ceiling: ceiling and visibility are OK
Clouds: unknown
Weather: no significant weather observed at this time

METAR text: LEZL 202200Z 21004KT 170V240 CAVOK 24/11 Q1015 NOSIG
Conditions at: LEZL (SEVILLA (CIV/MIL, ES) observed 2200 UTC 20 August 2019
Temperature: 24.0°C (75°F)
Dewpoint: 11.0°C (52°F) [RH = 44%]
Pressure (altimeter): 29.97 inches Hg (1015.0 mb)
Winds: from the SSW (210 degrees) at 5 MPH (4 knots; 2.1 m/s)
Visibility: 6 or more miles (10+ km)
Ceiling: ceiling and visibility are OK
Clouds: unknown
Weather: no significant weather observed at this time

METAR text: LEZL 202130Z 21006KT 180V250 CAVOK 25/11 Q1015 NOSIG
Conditions at: LEZL (SEVILLA (CIV/MIL, ES) observed 2130 UTC 20 August 2019
Temperature: 25.0°C (77°F)
Dewpoint: 11.0°C (52°F) [RH = 41%]
Pressure (altimeter): 29.97 inches Hg (1015.0 mb)
Winds: from the SSW (210 degrees) at 7 MPH (6 knots; 3.1 m/s)
Visibility: 6 or more miles (10+ km)
Ceiling: ceiling and visibility are OK
Clouds: unknown
Weather: no significant weather observed at this time

METAR text: LEZL 202100Z 21007KT CAVOK 26/10 Q1015 NOSIG
Conditions at: LEZL (SEVILLA (CIV/MIL, ES) observed 2100 UTC 20 August 2019
Temperature: 26.0°C (79°F)
Dewpoint: 10.0°C (50°F) [RH = 37%]
Pressure (altimeter): 29.97 inches Hg (1015.0 mb)
Winds: from the SSW (210 degrees) at 8 MPH (7 knots; 3.6 m/s)
Visibility: 6 or more miles (10+ km)
Ceiling: ceiling and visibility are OK
Clouds: unknown
Weather: no significant weather observed at this time

METAR text: LEZL 202030Z 21006KT 190V250 CAVOK 27/09 Q1014 NOSIG
Conditions at: LEZL (SEVILLA (CIV/MIL, ES) observed 2030 UTC 20 August 2019
Temperature: 27.0°C (81°F)
Dewpoint: 9.0°C (48°F) [RH = 32%]
Pressure (altimeter): 29.94 inches Hg (1014.0 mb)
Winds: from the SSW (210 degrees) at 7 MPH (6 knots; 3.1 m/s)
Visibility: 6 or more miles (10+ km)
Ceiling: ceiling and visibility are OK
Clouds: unknown
Weather: no significant weather observed at this time

METAR text: LEZL 202000Z 23008KT 200V260 CAVOK 28/07 Q1014 NOSIG
Conditions at: LEZL (SEVILLA (CIV/MIL, ES) observed 2000 UTC 20 August 2019
Temperature: 28.0°C (82°F)
Dewpoint: 7.0°C (45°F) [RH = 27%]
Pressure (altimeter): 29.94 inches Hg (1014.0 mb)
Winds: from the SW (230 degrees) at 9 MPH (8 knots; 4.1 m/s)
Visibility: 6 or more miles (10+ km)
Ceiling: ceiling and visibility are OK
Clouds: unknown
Weather: no significant weather observed at this time

METAR text: LEZL 201930Z 22009KT CAVOK 29/08 Q1013 NOSIG
Conditions at: LEZL (SEVILLA (CIV/MIL, ES) observed 1930 UTC 20 August 2019
Temperature: 29.0°C (84°F)
Dewpoint: 8.0°C (46°F) [RH = 27%]
Pressure (altimeter): 29.91 inches Hg (1013.0 mb)
Winds: from the SW (220 degrees) at 10 MPH (9 knots; 4.6 m/s)
Visibility: 6 or more miles (10+ km)
Ceiling: ceiling and visibility are OK
Clouds: unknown
Weather: no significant weather observed at this time

METAR text: LEZL 201900Z 22010KT 170V250 CAVOK 30/07 Q1013 NOSIG
Conditions at: LEZL (SEVILLA (CIV/MIL, ES) observed 1900 UTC 20 August 2019
Temperature: 30.0°C (86°F)
Dewpoint: 7.0°C (45°F) [RH = 24%]
Pressure (altimeter): 29.91 inches Hg (1013.0 mb)
Winds: from the SW (220 degrees) at 12 MPH (10 knots; 5.1 m/s)
Visibility: 6 or more miles (10+ km)
Ceiling: ceiling and visibility are OK
Clouds: unknown
Weather: no significant weather observed at this time

METAR text: LEZL 201830Z 22010KT CAVOK 31/08 Q1013 NOSIG
Conditions at: LEZL (SEVILLA (CIV/MIL, ES) observed 1830 UTC 20 August 2019
Temperature: 31.0°C (88°F)
Dewpoint: 8.0°C (46°F) [RH = 24%]
Pressure (altimeter): 29.91 inches Hg (1013.0 mb)
Winds: from the SW (220 degrees) at 12 MPH (10 knots; 5.1 m/s)
Visibility: 6 or more miles (10+ km)
Ceiling: ceiling and visibility are OK
Clouds: unknown
Weather: no significant weather observed at this time

METAR text: LEZL 201800Z 23010KT CAVOK 32/06 Q1013 NOSIG
Conditions at: LEZL (SEVILLA (CIV/MIL, ES) observed 1800 UTC 20 August 2019
Temperature: 32.0°C (90°F)
Dewpoint: 6.0°C (43°F) [RH = 20%]
Pressure (altimeter): 29.91 inches Hg (1013.0 mb)
Winds: from the SW (230 degrees) at 12 MPH (10 knots; 5.1 m/s)
Visibility: 6 or more miles (10+ km)
Ceiling: ceiling and visibility are OK
Clouds: unknown
Weather: no significant weather observed at this time

METAR text: LEZL 201730Z 24009KT CAVOK 33/07 Q1013 NOSIG
Conditions at: LEZL (SEVILLA (CIV/MIL, ES) observed 1730 UTC 20 August 2019
Temperature: 33.0°C (91°F)
Dewpoint: 7.0°C (45°F) [RH = 20%]
Pressure (altimeter): 29.91 inches Hg (1013.0 mb)
Winds: from the WSW (240 degrees) at 10 MPH (9 knots; 4.6 m/s)
Visibility: 6 or more miles (10+ km)
Ceiling: ceiling and visibility are OK
Clouds: unknown
Weather: no significant weather observed at this time

METAR text: LEZL 201700Z 22007KT 190V260 CAVOK 34/06 Q1013 NOSIG
Conditions at: LEZL (SEVILLA (CIV/MIL, ES) observed 1700 UTC 20 August 2019
Temperature: 34.0°C (93°F)
Dewpoint: 6.0°C (43°F) [RH = 18%]
Pressure (altimeter): 29.91 inches Hg (1013.0 mb)
Winds: from the SW (220 degrees) at 8 MPH (7 knots; 3.6 m/s)
Visibility: 6 or more miles (10+ km)
Ceiling: ceiling and visibility are OK
Clouds: unknown
Weather: no significant weather observed at this time

METAR text: LEZL 201630Z 21004KT 100V260 CAVOK 35/04 Q1013 NOSIG
Conditions at: LEZL (SEVILLA (CIV/MIL, ES) observed 1630 UTC 20 August 2019
Temperature: 35.0°C (95°F)
Dewpoint: 4.0°C (39°F) [RH = 14%]
Pressure (altimeter): 29.91 inches Hg (1013.0 mb)
Winds: from the SSW (210 degrees) at 5 MPH (4 knots; 2.1 m/s)
Visibility: 6 or more miles (10+ km)
Ceiling: ceiling and visibility are OK
Clouds: unknown
Weather: no significant weather observed at this time

METAR text: LEZL 201600Z 23003KT CAVOK 34/03 Q1013 NOSIG
Conditions at: LEZL (SEVILLA (CIV/MIL, ES) observed 1600 UTC 20 August 2019
Temperature: 34.0°C (93°F)
Dewpoint: 3.0°C (37°F) [RH = 14%]
Pressure (altimeter): 29.91 inches Hg (1013.0 mb)
Winds: from the SW (230 degrees) at 3 MPH (3 knots; 1.5 m/s)
Visibility: 6 or more miles (10+ km)
Ceiling: ceiling and visibility are OK
Clouds: unknown
Weather: no significant weather observed at this time

METAR text: LEZL 201530Z 30004KT CAVOK 34/02 Q1014 NOSIG
Conditions at: LEZL (SEVILLA (CIV/MIL, ES) observed 1530 UTC 20 August 2019
Temperature: 34.0°C (93°F)
Dewpoint: 2.0°C (36°F) [RH = 13%]
Pressure (altimeter): 29.94 inches Hg (1014.0 mb)
Winds: from the WNW (300 degrees) at 5 MPH (4 knots; 2.1 m/s)
Visibility: 6 or more miles (10+ km)
Ceiling: ceiling and visibility are OK
Clouds: unknown
Weather: no significant weather observed at this time

METAR text: LEZL 201500Z 21004KT 120V290 CAVOK 33/01 Q1014 NOSIG
Conditions at: LEZL (SEVILLA (CIV/MIL, ES) observed 1500 UTC 20 August 2019
Temperature: 33.0°C (91°F)
Dewpoint: 1.0°C (34°F) [RH = 13%]
Pressure (altimeter): 29.94 inches Hg (1014.0 mb)
Winds: from the SSW (210 degrees) at 5 MPH (4 knots; 2.1 m/s)
Visibility: 6 or more miles (10+ km)
Ceiling: ceiling and visibility are OK
Clouds: unknown
Weather: no significant weather observed at this time

METAR text: LEZL 201430Z 27004KT 210V360 CAVOK 33/02 Q1014 NOSIG
Conditions at: LEZL (SEVILLA (CIV/MIL, ES) observed 1430 UTC 20 August 2019
Temperature: 33.0°C (91°F)
Dewpoint: 2.0°C (36°F) [RH = 14%]
Pressure (altimeter): 29.94 inches Hg (1014.0 mb)
Winds: from the W (270 degrees) at 5 MPH (4 knots; 2.1 m/s)
Visibility: 6 or more miles (10+ km)
Ceiling: ceiling and visibility are OK
Clouds: unknown
Weather: no significant weather observed at this time

METAR text: LEZL 201400Z 25004KT CAVOK 32/05 Q1014 NOSIG
Conditions at: LEZL (SEVILLA (CIV/MIL, ES) observed 1400 UTC 20 August 2019
Temperature: 32.0°C (90°F)
Dewpoint: 5.0°C (41°F) [RH = 18%]
Pressure (altimeter): 29.94 inches Hg (1014.0 mb)
Winds: from the WSW (250 degrees) at 5 MPH (4 knots; 2.1 m/s)
Visibility: 6 or more miles (10+ km)
Ceiling: ceiling and visibility are OK
Clouds: unknown
Weather: no significant weather observed at this time

METAR text: LEZL 201330Z 23002KT CAVOK 33/05 Q1015 NOSIG
Conditions at: LEZL (SEVILLA (CIV/MIL, ES) observed 1330 UTC 20 August 2019
Temperature: 33.0°C (91°F)
Dewpoint: 5.0°C (41°F) [RH = 17%]
Pressure (altimeter): 29.97 inches Hg (1015.0 mb)
Winds: from the SW (230 degrees) at 2 MPH (2 knots; 1.0 m/s)
Visibility: 6 or more miles (10+ km)
Ceiling: ceiling and visibility are OK
Clouds: unknown
Weather: no significant weather observed at this time

METAR text: LEZL 201300Z 22003KT CAVOK 32/04 Q1015 NOSIG
Conditions at: LEZL (SEVILLA (CIV/MIL, ES) observed 1300 UTC 20 August 2019
Temperature: 32.0°C (90°F)
Dewpoint: 4.0°C (39°F) [RH = 17%]
Pressure (altimeter): 29.97 inches Hg (1015.0 mb)
Winds: from the SW (220 degrees) at 3 MPH (3 knots; 1.5 m/s)
Visibility: 6 or more miles (10+ km)
Ceiling: ceiling and visibility are OK
Clouds: unknown
Weather: no significant weather observed at this time

METAR text: LEZL 201230Z 24004KT CAVOK 31/05 Q1015 NOSIG
Conditions at: LEZL (SEVILLA (CIV/MIL, ES) observed 1230 UTC 20 August 2019
Temperature: 31.0°C (88°F)
Dewpoint: 5.0°C (41°F) [RH = 19%]
Pressure (altimeter): 29.97 inches Hg (1015.0 mb)
Winds: from the WSW (240 degrees) at 5 MPH (4 knots; 2.1 m/s)
Visibility: 6 or more miles (10+ km)
Ceiling: ceiling and visibility are OK
Clouds: unknown
Weather: no significant weather observed at this time

METAR text: LEZL 201200Z 29003KT CAVOK 30/08 Q1015 NOSIG
Conditions at: LEZL (SEVILLA (CIV/MIL, ES) observed 1200 UTC 20 August 2019
Temperature: 30.0°C (86°F)
Dewpoint: 8.0°C (46°F) [RH = 25%]
Pressure (altimeter): 29.97 inches Hg (1015.0 mb)
Winds: from the WNW (290 degrees) at 3 MPH (3 knots; 1.5 m/s)
Visibility: 6 or more miles (10+ km)
Ceiling: ceiling and visibility are OK
Clouds: unknown
Weather: no significant weather observed at this time

METAR text: LEZL 201130Z 13004KT 060V170 CAVOK 29/09 Q1016 NOSIG
Conditions at: LEZL (SEVILLA (CIV/MIL, ES) observed 1130 UTC 20 August 2019
Temperature: 29.0°C (84°F)
Dewpoint: 9.0°C (48°F) [RH = 29%]
Pressure (altimeter): 30.00 inches Hg (1016.0 mb)
Winds: from the SE (130 degrees) at 5 MPH (4 knots; 2.1 m/s)
Visibility: 6 or more miles (10+ km)
Ceiling: ceiling and visibility are OK
Clouds: unknown
Weather: no significant weather observed at this time

METAR text: LEZL 201100Z 36003KT CAVOK 28/08 Q1016 NOSIG
Conditions at: LEZL (SEVILLA (CIV/MIL, ES) observed 1100 UTC 20 August 2019
Temperature: 28.0°C (82°F)
Dewpoint: 8.0°C (46°F) [RH = 28%]
Pressure (altimeter): 30.00 inches Hg (1016.0 mb)
Winds: from the N (360 degrees) at 3 MPH (3 knots; 1.5 m/s)
Visibility: 6 or more miles (10+ km)
Ceiling: ceiling and visibility are OK
Clouds: unknown
Weather: no significant weather observed at this time

METAR text: LEZL 201030Z 22003KT 160V320 CAVOK 28/09 Q1016 NOSIG
Conditions at: LEZL (SEVILLA (CIV/MIL, ES) observed 1030 UTC 20 August 2019
Temperature: 28.0°C (82°F)
Dewpoint: 9.0°C (48°F) [RH = 30%]
Pressure (altimeter): 30.00 inches Hg (1016.0 mb)
Winds: from the SW (220 degrees) at 3 MPH (3 knots; 1.5 m/s)
Visibility: 6 or more miles (10+ km)
Ceiling: ceiling and visibility are OK
Clouds: unknown
Weather: no significant weather observed at this time

METAR text: LEZL 201000Z 24003KT CAVOK 27/09 Q1016 NOSIG
Conditions at: LEZL (SEVILLA (CIV/MIL, ES) observed 1000 UTC 20 August 2019
Temperature: 27.0°C (81°F)
Dewpoint: 9.0°C (48°F) [RH = 32%]
Pressure (altimeter): 30.00 inches Hg (1016.0 mb)
Winds: from the WSW (240 degrees) at 3 MPH (3 knots; 1.5 m/s)
Visibility: 6 or more miles (10+ km)
Ceiling: ceiling and visibility are OK
Clouds: unknown
Weather: no significant weather observed at this time

METAR text: LEZL 200930Z 20002KT CAVOK 27/09 Q1016 NOSIG
Conditions at: LEZL (SEVILLA (CIV/MIL, ES) observed 0930 UTC 20 August 2019
Temperature: 27.0°C (81°F)
Dewpoint: 9.0°C (48°F) [RH = 32%]
Pressure (altimeter): 30.00 inches Hg (1016.0 mb)
Winds: from the SSW (200 degrees) at 2 MPH (2 knots; 1.0 m/s)
Visibility: 6 or more miles (10+ km)
Ceiling: ceiling and visibility are OK
Clouds: unknown
Weather: no significant weather observed at this time

METAR text: LEZL 200900Z 30002KT CAVOK 25/08 Q1016 NOSIG
Conditions at: LEZL (SEVILLA (CIV/MIL, ES) observed 0900 UTC 20 August 2019
Temperature: 25.0°C (77°F)
Dewpoint: 8.0°C (46°F) [RH = 34%]
Pressure (altimeter): 30.00 inches Hg (1016.0 mb)
Winds: from the WNW (300 degrees) at 2 MPH (2 knots; 1.0 m/s)
Visibility: 6 or more miles (10+ km)
Ceiling: ceiling and visibility are OK
Clouds: unknown
Weather: no significant weather observed at this time

METAR text: LEZL 200830Z VRB01KT CAVOK 25/11 Q1015 NOSIG
Conditions at: LEZL (SEVILLA (CIV/MIL, ES) observed 0830 UTC 20 August 2019
Temperature: 25.0°C (77°F)
Dewpoint: 11.0°C (52°F) [RH = 41%]
Pressure (altimeter): 29.97 inches Hg (1015.0 mb)
Winds: variable direction winds at 1 MPH (1 knots; 0.5 m/s)
Visibility: 6 or more miles (10+ km)
Ceiling: ceiling and visibility are OK
Clouds: unknown
Weather: no significant weather observed at this time

METAR text: LEZL 200800Z 00000KT CAVOK 23/12 Q1015 NOSIG
Conditions at: LEZL (SEVILLA (CIV/MIL, ES) observed 0800 UTC 20 August 2019
Temperature: 23.0°C (73°F)
Dewpoint: 12.0°C (54°F) [RH = 50%]
Pressure (altimeter): 29.97 inches Hg (1015.0 mb)
Winds: calm
Visibility: 6 or more miles (10+ km)
Ceiling: ceiling and visibility are OK
Clouds: unknown
Weather: no significant weather observed at this time

METAR text: LEZL 200730Z 25001KT CAVOK 23/12 Q1015 NOSIG
Conditions at: LEZL (SEVILLA (CIV/MIL, ES) observed 0730 UTC 20 August 2019
Temperature: 23.0°C (73°F)
Dewpoint: 12.0°C (54°F) [RH = 50%]
Pressure (altimeter): 29.97 inches Hg (1015.0 mb)
Winds: from the WSW (250 degrees) at 1 MPH (1 knots; 0.5 m/s)
Visibility: 6 or more miles (10+ km)
Ceiling: ceiling and visibility are OK
Clouds: unknown
Weather: no significant weather observed at this time

METAR text: LEZL 200700Z VRB02KT CAVOK 21/12 Q1015 NOSIG
Conditions at: LEZL (SEVILLA (CIV/MIL, ES) observed 0700 UTC 20 August 2019
Temperature: 21.0°C (70°F)
Dewpoint: 12.0°C (54°F) [RH = 56%]
Pressure (altimeter): 29.97 inches Hg (1015.0 mb)
Winds: variable direction winds at 2 MPH (2 knots; 1.0 m/s)
Visibility: 6 or more miles (10+ km)
Ceiling: ceiling and visibility are OK
Clouds: unknown
Weather: no significant weather observed at this time

METAR text: LEZL 200630Z 16003KT 140V230 CAVOK 20/13 Q1015 NOSIG
Conditions at: LEZL (SEVILLA (CIV/MIL, ES) observed 0630 UTC 20 August 2019
Temperature: 20.0°C (68°F)
Dewpoint: 13.0°C (55°F) [RH = 64%]
Pressure (altimeter): 29.97 inches Hg (1015.0 mb)
Winds: from the SSE (160 degrees) at 3 MPH (3 knots; 1.5 m/s)
Visibility: 6 or more miles (10+ km)
Ceiling: ceiling and visibility are OK
Clouds: unknown
Weather: no significant weather observed at this time

METAR text: LEZL 200600Z VRB01KT CAVOK 19/13 Q1015 NOSIG
Conditions at: LEZL (SEVILLA (CIV/MIL, ES) observed 0600 UTC 20 August 2019
Temperature: 19.0°C (66°F)
Dewpoint: 13.0°C (55°F) [RH = 68%]
Pressure (altimeter): 29.97 inches Hg (1015.0 mb)
Winds: variable direction winds at 1 MPH (1 knots; 0.5 m/s)
Visibility: 6 or more miles (10+ km)
Ceiling: ceiling and visibility are OK
Clouds: unknown
Weather: no significant weather observed at this time

METAR text: LEZL 200530Z VRB02KT CAVOK 20/13 Q1014 NOSIG
Conditions at: LEZL (SEVILLA (CIV/MIL, ES) observed 0530 UTC 20 August 2019
Temperature: 20.0°C (68°F)
Dewpoint: 13.0°C (55°F) [RH = 64%]
Pressure (altimeter): 29.94 inches Hg (1014.0 mb)
Winds: variable direction winds at 2 MPH (2 knots; 1.0 m/s)
Visibility: 6 or more miles (10+ km)
Ceiling: ceiling and visibility are OK
Clouds: unknown
Weather: no significant weather observed at this time

METAR text: LEZL 200500Z 18004KT CAVOK 20/12 Q1014 NOSIG
Conditions at: LEZL (SEVILLA (CIV/MIL, ES) observed 0500 UTC 20 August 2019
Temperature: 20.0°C (68°F)
Dewpoint: 12.0°C (54°F) [RH = 60%]
Pressure (altimeter): 29.94 inches Hg (1014.0 mb)
Winds: from the S (180 degrees) at 5 MPH (4 knots; 2.1 m/s)
Visibility: 6 or more miles (10+ km)
Ceiling: ceiling and visibility are OK
Clouds: unknown
Weather: no significant weather observed at this time

METAR text: LEZL 200430Z 18003KT 140V210 CAVOK 19/12 Q1014 NOSIG
Conditions at: LEZL (SEVILLA (CIV/MIL, ES) observed 0430 UTC 20 August 2019
Temperature: 19.0°C (66°F)
Dewpoint: 12.0°C (54°F) [RH = 64%]
Pressure (altimeter): 29.94 inches Hg (1014.0 mb)
Winds: from the S (180 degrees) at 3 MPH (3 knots; 1.5 m/s)
Visibility: 6 or more miles (10+ km)
Ceiling: ceiling and visibility are OK
Clouds: unknown
Weather: no significant weather observed at this time

METAR text: LEZL 200400Z 17005KT CAVOK 20/12 Q1014 NOSIG
Conditions at: LEZL (SEVILLA (CIV/MIL, ES) observed 0400 UTC 20 August 2019
Temperature: 20.0°C (68°F)
Dewpoint: 12.0°C (54°F) [RH = 60%]
Pressure (altimeter): 29.94 inches Hg (1014.0 mb)
Winds: from the S (170 degrees) at 6 MPH (5 knots; 2.6 m/s)
Visibility: 6 or more miles (10+ km)
Ceiling: ceiling and visibility are OK
Clouds: unknown
Weather: no significant weather observed at this time

METAR text: LEZL 200330Z 17005KT CAVOK 20/12 Q1014 NOSIG
Conditions at: LEZL (SEVILLA (CIV/MIL, ES) observed 0330 UTC 20 August 2019
Temperature: 20.0°C (68°F)
Dewpoint: 12.0°C (54°F) [RH = 60%]
Pressure (altimeter): 29.94 inches Hg (1014.0 mb)
Winds: from the S (170 degrees) at 6 MPH (5 knots; 2.6 m/s)
Visibility: 6 or more miles (10+ km)
Ceiling: ceiling and visibility are OK
Clouds: unknown
Weather: no significant weather observed at this time

METAR text: LEZL 200300Z 17004KT CAVOK 20/12 Q1014 NOSIG
Conditions at: LEZL (SEVILLA (CIV/MIL, ES) observed 0300 UTC 20 August 2019
Temperature: 20.0°C (68°F)
Dewpoint: 12.0°C (54°F) [RH = 60%]
Pressure (altimeter): 29.94 inches Hg (1014.0 mb)
Winds: from the S (170 degrees) at 5 MPH (4 knots; 2.1 m/s)
Visibility: 6 or more miles (10+ km)
Ceiling: ceiling and visibility are OK
Clouds: unknown
Weather: no significant weather observed at this time

METAR text: LEZL 200230Z 17005KT CAVOK 20/12 Q1014 NOSIG
Conditions at: LEZL (SEVILLA (CIV/MIL, ES) observed 0230 UTC 20 August 2019
Temperature: 20.0°C (68°F)
Dewpoint: 12.0°C (54°F) [RH = 60%]
Pressure (altimeter): 29.94 inches Hg (1014.0 mb)
Winds: from the S (170 degrees) at 6 MPH (5 knots; 2.6 m/s)
Visibility: 6 or more miles (10+ km)
Ceiling: ceiling and visibility are OK
Clouds: unknown
Weather: no significant weather observed at this time

METAR text: LEZL 200200Z 17003KT 140V200 CAVOK 20/11 Q1014 NOSIG
Conditions at: LEZL (SEVILLA (CIV/MIL, ES) observed 0200 UTC 20 August 2019
Temperature: 20.0°C (68°F)
Dewpoint: 11.0°C (52°F) [RH = 56%]
Pressure (altimeter): 29.94 inches Hg (1014.0 mb)
Winds: from the S (170 degrees) at 3 MPH (3 knots; 1.5 m/s)
Visibility: 6 or more miles (10+ km)
Ceiling: ceiling and visibility are OK
Clouds: unknown
Weather: no significant weather observed at this time

METAR text: LEZL 200130Z VRB02KT CAVOK 21/12 Q1014 NOSIG
Conditions at: LEZL (SEVILLA (CIV/MIL, ES) observed 0130 UTC 20 August 2019
Temperature: 21.0°C (70°F)
Dewpoint: 12.0°C (54°F) [RH = 56%]
Pressure (altimeter): 29.94 inches Hg (1014.0 mb)
Winds: variable direction winds at 2 MPH (2 knots; 1.0 m/s)
Visibility: 6 or more miles (10+ km)
Ceiling: ceiling and visibility are OK
Clouds: unknown
Weather: no significant weather observed at this time

Forecast for: LEZL (SEVILLA (CIV/MIL, ES)
Text: TAF LEZL 210800Z 2109/2209 04005KT CAVOK TX35/2116Z TN22/2205Z
Forecast period: 0900 to 1500 UTC 21 August 2019
Forecast type: FROM: standard forecast or significant change
Winds: from the NE (40 degrees) at 6 MPH (5 knots; 2.6 m/s)
Visibility: 6 or more miles 10+ km)
Ceiling: unknown
Clouds: missing
Weather: no significant weather forecast for this period
Text: BECMG 2115/2118 22010KT
Forecast period: 1500 UTC 21 August 2019 to 0000 UTC 22 August 2019
Forecast type: BECOMING: Conditions expected to become as follows by 1800 UTC 21 August 2019
Winds: from the SW (220 degrees) at 12 MPH (10 knots; 5.1 m/s)
Visibility: 6 or more miles 10+ km)
Ceiling: unknown
Clouds: missing
Weather: no significant weather forecast for this period
Text: BECMG 2200/2202 VRB03KT
Forecast period: 0000 to 0900 UTC 22 August 2019
Forecast type: BECOMING: Conditions expected to become as follows by 0200 UTC 22 August 2019
Winds: variable direction winds at 3 MPH (3 knots; 1.5 m/s)
Visibility: 6 or more miles 10+ km)
Ceiling: unknown
Clouds: missing
Weather: no significant weather forecast for this period